Time;durP1;ratioP1;P1;durP2;ratioP2;P2;SDS_P1;SDS_P2;PMS_P1;PMS_P2;Temp;Humidity;BMP_temperature;BMP_pressure;BME280_temperature;BME280_humidity;BME280_pressure;Samples;Min_cycle;Max_cycle;Signal;HPM_P1;HPM_P2
2023/01/15 00:00:41;;;;;;;;;1.25;0.25;;;;;9.58;76.67;99955.84;5037077;27;45638;-62
2023/01/15 00:03:06;;;;;;;;;2.00;2.00;;;;;9.62;75.91;99961.72;5037659;28;45419;-62
2023/01/15 00:05:35;;;;;;;;;1.00;1.00;;;;;9.66;76.04;99965.66;5052159;28;45324;-62
2023/01/15 00:08:01;;;;;;;;;2.00;1.00;;;;;9.63;75.72;99964.25;5032992;28;45439;-59
2023/01/15 00:10:27;;;;;;;;;2.40;1.40;;;;;9.57;75.30;99970.63;5032946;28;45595;-60
2023/01/15 00:12:52;;;;;;;;;0.00;0.00;;;;;9.46;71.98;99969.41;5050971;28;45476;-59
2023/01/15 00:15:18;;;;;;;;;1.00;0.00;;;;;9.46;74.47;99966.69;5050684;28;45430;-60
2023/01/15 00:17:43;;;;;;;;;2.50;1.00;;;;;9.52;75.62;99970.44;5050999;28;45408;-62
2023/01/15 00:20:10;;;;;;;;;0.00;0.00;;;;;9.50;73.62;99961.59;5051281;28;45397;-61
2023/01/15 00:22:35;;;;;;;;;0.00;0.00;;;;;9.21;74.14;99933.81;5051108;28;45454;-61
2023/01/15 00:27:45;;;;;;;;;0.20;0.00;;;;;9.39;74.52;99962.34;5017349;27;45411;-63
2023/01/15 00:30:12;;;;;;;;;0.50;0.50;;;;;9.45;74.50;99961.44;5036917;28;45367;-63
2023/01/15 00:32:39;;;;;;;;;0.00;0.00;;;;;9.38;74.61;99964.22;5055313;28;45312;-63
2023/01/15 00:35:05;;;;;;;;;1.80;1.20;;;;;9.42;74.89;99967.34;5055219;28;45612;-63
2023/01/15 00:37:30;;;;;;;;;0.00;0.00;;;;;9.27;74.57;99960.31;5054869;28;46413;-64
2023/01/15 00:39:56;;;;;;;;;0.00;0.00;;;;;9.28;74.40;99969.38;5055331;28;45322;-64
2023/01/15 00:42:21;;;;;;;;;0.00;0.00;;;;;9.36;75.11;99966.34;5036848;28;45400;-63
2023/01/15 00:44:47;;;;;;;;;0.50;0.50;;;;;9.44;74.70;99968.00;5053913;28;45324;-63
2023/01/15 00:47:14;;;;;;;;;1.00;0.50;;;;;9.44;74.65;99968.00;5053523;28;45533;-63
2023/01/15 00:49:42;;;;;;;;;1.00;1.00;;;;;9.47;75.35;99978.50;5054674;28;45864;-61
2023/01/15 00:52:08;;;;;;;;;0.00;0.00;;;;;9.47;74.45;99975.75;5053806;28;45386;-61
2023/01/15 00:54:33;;;;;;;;;1.25;1.00;;;;;9.29;75.01;99925.31;5036636;28;45586;-62
2023/01/15 00:56:59;;;;;;;;;0.25;0.25;;;;;9.53;74.60;99954.81;5055164;28;45342;-63
2023/01/15 00:59:24;;;;;;;;;0.25;0.25;;;;;9.43;74.27;99960.81;5054525;28;45431;-63
2023/01/15 01:01:50;;;;;;;;;0.00;0.00;;;;;9.49;74.34;99973.63;5054948;28;45287;-64
2023/01/15 01:04:15;;;;;;;;;0.75;0.75;;;;;9.45;75.20;99972.41;5036870;28;45297;-62
2023/01/15 01:06:41;;;;;;;;;0.75;0.75;;;;;9.49;74.59;99970.88;5054377;28;45429;-64
2023/01/15 01:09:07;;;;;;;;;0.00;0.00;;;;;9.51;74.40;99957.81;5053555;28;45497;-63
2023/01/15 01:11:33;;;;;;;;;1.00;0.00;;;;;9.48;74.28;99950.03;5054356;28;45501;-63
2023/01/15 01:14:00;;;;;;;;;1.80;0.00;;;;;9.42;74.14;99956.41;5055201;28;45370;-62
2023/01/15 01:16:34;;;;;;;;;0.00;0.00;;;;;9.51;74.52;99971.50;5036190;28;47132;-63
2023/01/15 01:19:02;;;;;;;;;1.00;1.00;;;;;9.52;73.99;99972.34;5054646;28;45354;-63
2023/01/15 01:21:28;;;;;;;;;0.00;0.00;;;;;9.44;74.58;99968.81;5036605;28;45344;-63
2023/01/15 01:23:53;;;;;;;;;1.00;0.00;;;;;9.43;74.59;99978.09;5036738;28;45478;-63
2023/01/15 01:26:19;;;;;;;;;1.00;0.00;;;;;9.41;74.84;99979.38;5036339;28;45757;-63
2023/01/15 01:28:51;;;;;;;;;1.00;0.00;;;;;9.33;73.24;99970.38;5054132;28;45386;-63
2023/01/15 01:31:17;;;;;;;;;0.20;0.00;;;;;9.24;72.79;99969.00;5017686;28;45587;-63
2023/01/15 01:33:42;;;;;;;;;0.00;0.00;;;;;9.19;73.04;99971.53;5053700;28;45290;-63
2023/01/15 01:36:08;;;;;;;;;0.00;0.00;;;;;9.13;73.57;99973.25;5050666;28;46569;-63
2023/01/15 01:38:33;;;;;;;;;0.75;0.00;;;;;9.04;72.72;99966.38;5054366;28;45397;-63
2023/01/15 01:40:59;;;;;;;;;0.00;0.00;;;;;9.20;74.07;99987.75;5053894;28;45392;-63
2023/01/15 01:43:26;;;;;;;;;1.00;0.00;;;;;9.21;72.29;99986.69;5054835;28;45301;-63
2023/01/15 01:45:51;;;;;;;;;0.00;0.00;;;;;9.11;72.78;99994.53;5053660;28;46432;-63
2023/01/15 01:48:19;;;;;;;;;0.00;0.00;;;;;9.12;72.63;99985.28;5054700;28;45493;-63
2023/01/15 01:50:45;;;;;;;;;0.00;0.00;;;;;9.18;73.13;99984.38;5072057;28;45324;-63
2023/01/15 01:53:19;;;;;;;;;0.00;0.00;;;;;9.03;73.37;99953.75;5040091;28;45299;-63
2023/01/15 01:55:44;;;;;;;;;0.40;0.40;;;;;9.26;73.42;99988.75;5057391;28;46202;-63
2023/01/15 01:58:10;;;;;;;;;0.00;0.00;;;;;9.24;72.39;99985.41;5056250;28;45235;-63
2023/01/15 02:00:35;;;;;;;;;0.00;0.00;;;;;9.26;73.27;99994.25;5039913;28;45893;-63
2023/01/15 02:03:01;;;;;;;;;2.00;1.00;;;;;9.30;71.99;99992.75;5040423;28;45640;-62
2023/01/15 02:05:32;;;;;;;;;1.00;0.00;;;;;9.23;71.93;99986.44;5039516;28;46132;-62
2023/01/15 02:07:58;;;;;;;;;1.00;0.00;;;;;9.27;72.42;99986.84;5056113;28;45456;-62
2023/01/15 02:10:24;;;;;;;;;1.00;0.00;;;;;9.28;72.69;99986.63;5057334;28;45311;-62
2023/01/15 02:13:04;;;;;;;;;0.00;0.00;;;;;9.29;71.73;99996.53;5056915;28;45445;-62
2023/01/15 02:15:39;;;;;;;;;0.00;0.00;;;;;9.17;72.52;100001.88;5057292;28;45400;-63
2023/01/15 02:18:11;;;;;;;;;0.00;0.00;;;;;9.20;72.48;100009.66;5057259;28;45868;-62
2023/01/15 02:20:41;;;;;;;;;0.00;0.00;;;;;9.24;72.29;100010.06;5056195;28;45394;-62
2023/01/15 02:23:32;;;;;;;;;0.80;0.00;;;;;9.16;71.83;100011.16;5057510;28;45525;-62
2023/01/15 02:26:10;;;;;;;;;0.00;0.00;;;;;9.17;71.09;100028.41;5012016;28;46379;-62
2023/01/15 02:28:37;;;;;;;;;0.00;0.00;;;;;9.08;72.35;100020.47;5038840;28;45436;-62
2023/01/15 02:31:10;;;;;;;;;0.40;0.00;;;;;9.10;72.68;100036.69;5056907;28;45247;-62
2023/01/15 02:33:45;;;;;;;;;0.00;0.00;;;;;8.91;71.80;100008.38;5056240;28;45401;-62
2023/01/15 02:36:11;;;;;;;;;0.00;0.00;;;;;8.63;72.22;99955.66;5038773;28;45436;-62
2023/01/15 02:38:47;;;;;;;;;1.00;1.00;;;;;9.03;71.44;100027.66;5057100;28;45263;-62
2023/01/15 02:41:16;;;;;;;;;0.00;0.00;;;;;9.06;73.61;100036.28;5039025;28;45558;-63
2023/01/15 02:43:44;;;;;;;;;0.00;0.00;;;;;9.07;72.56;100051.63;5023952;28;45418;-63
2023/01/15 02:46:09;;;;;;;;;0.60;0.00;;;;;9.05;72.46;100012.69;5018844;28;46112;-63
2023/01/15 02:48:35;;;;;;;;;0.00;0.00;;;;;8.71;71.92;99979.22;5035440;28;45405;-63
2023/01/15 02:51:14;;;;;;;;;3.00;0.00;;;;;8.95;72.44;100012.31;5035123;28;45376;-64
2023/01/15 02:53:41;;;;;;;;;0.00;0.00;;;;;9.05;72.22;100055.66;5035725;28;45469;-63
2023/01/15 02:56:12;;;;;;;;;0.00;0.00;;;;;9.02;71.83;100045.97;5035153;28;46212;-64
2023/01/15 02:58:38;;;;;;;;;1.00;0.00;;;;;8.85;71.68;100033.88;5051155;28;45533;-65
2023/01/15 03:01:09;;;;;;;;;0.40;0.40;;;;;8.93;72.54;100047.28;5050458;28;45450;-64
2023/01/15 03:03:55;;;;;;;;;0.00;0.00;;;;;8.98;72.33;100057.59;5051494;28;45444;-64
2023/01/15 03:06:29;;;;;;;;;2.60;1.00;;;;;9.02;73.06;100067.03;5019202;28;47984;-64
2023/01/15 03:08:54;;;;;;;;;0.00;0.00;;;;;9.06;72.55;100079.22;5035278;28;45488;-64
2023/01/15 03:11:20;;;;;;;;;1.00;0.00;;;;;8.97;71.48;100064.97;5018051;28;45470;-64
2023/01/15 03:14:06;;;;;;;;;0.00;0.00;;;;;8.95;72.95;100056.13;5035379;28;45393;-64
2023/01/15 03:16:38;;;;;;;;;0.00;0.00;;;;;8.80;72.38;100043.56;5035641;28;46072;-65
2023/01/15 03:19:06;;;;;;;;;0.60;0.00;;;;;9.01;72.79;100060.72;5035975;28;45481;-64
2023/01/15 03:21:57;;;;;;;;;1.00;1.00;;;;;9.01;72.24;100071.66;5035996;28;45377;-64
2023/01/15 03:24:33;;;;;;;;;0.00;0.00;;;;;8.85;72.54;100056.59;5036426;28;45294;-64
2023/01/15 03:27:00;;;;;;;;;0.00;0.00;;;;;9.01;72.89;100076.31;5034812;28;45991;-64
2023/01/15 03:29:28;;;;;;;;;1.00;1.00;;;;;9.02;72.60;100080.72;5051444;28;45389;-64
2023/01/15 03:31:53;;;;;;;;;0.00;0.00;;;;;8.93;71.44;100078.22;5051430;28;45476;-64
2023/01/15 03:34:19;;;;;;;;;0.00;0.00;;;;;8.92;72.70;100070.25;5034973;28;45385;-64
2023/01/15 03:36:44;;;;;;;;;0.00;0.00;;;;;8.79;72.13;100039.16;5035453;28;46505;-64
2023/01/15 03:39:10;;;;;;;;;3.00;1.00;;;;;8.94;71.53;100068.13;5036012;28;45310;-64
2023/01/15 03:41:41;;;;;;;;;1.00;0.00;;;;;8.91;71.75;100063.94;5034237;28;45671;-64
2023/01/15 03:45:00;;;;;;;;;0.00;0.00;;;;;8.78;71.13;100067.56;5037446;28;45313;-65
2023/01/15 03:47:33;;;;;;;;;0.20;0.20;;;;;8.82;71.62;100051.56;4993231;28;46398;-64
2023/01/15 03:50:45;;;;;;;;;0.00;0.00;;;;;8.85;71.83;100051.13;5031847;28;45433;-64
2023/01/15 03:53:27;;;;;;;;;0.00;0.00;;;;;8.64;70.56;100033.94;4973867;28;45472;-64
2023/01/15 03:56:09;;;;;;;;;0.00;0.00;;;;;8.73;70.96;100053.69;5052649;28;46014;-65
2023/01/15 03:58:41;;;;;;;;;0.00;0.00;;;;;8.78;70.86;100063.97;5054096;28;46781;-64
2023/01/15 04:01:08;;;;;;;;;2.00;1.40;;;;;8.63;69.13;100045.09;5020663;28;45430;-64
2023/01/15 04:03:34;;;;;;;;;2.00;0.00;;;;;8.64;71.51;100069.50;5071444;28;45324;-64
2023/01/15 04:06:00;;;;;;;;;0.00;0.00;;;;;8.58;70.84;100051.22;5037546;28;45577;-64
2023/01/15 04:08:27;;;;;;;;;0.00;0.00;;;;;8.67;71.09;100060.88;5037526;28;45743;-64
2023/01/15 04:10:55;;;;;;;;;0.00;0.00;;;;;8.49;70.25;100041.56;5053923;28;45384;-64
2023/01/15 04:13:21;;;;;;;;;1.00;0.00;;;;;8.65;70.85;100062.16;5055083;28;45255;-63
2023/01/15 04:15:46;;;;;;;;;2.00;1.00;;;;;8.63;68.95;100045.94;5055630;28;45526;-64
2023/01/15 04:18:12;;;;;;;;;0.00;0.00;;;;;8.61;67.90;100041.75;5020281;28;46137;-64
2023/01/15 04:20:37;;;;;;;;;0.00;0.00;;;;;8.37;69.63;99997.59;5055269;28;45450;-64
2023/01/15 04:23:03;;;;;;;;;0.00;0.00;;;;;8.61;68.32;100034.41;5037052;28;45277;-64
2023/01/15 04:25:28;;;;;;;;;0.00;0.00;;;;;8.56;69.06;100047.88;5055008;28;45413;-63
2023/01/15 04:27:54;;;;;;;;;0.00;0.00;;;;;8.45;67.82;100019.25;5035073;28;45271;-64
2023/01/15 04:30:20;;;;;;;;;0.25;0.00;;;;;8.52;68.20;100032.94;5036811;28;45687;-64
2023/01/15 04:32:48;;;;;;;;;0.00;0.00;;;;;8.16;67.58;100002.28;5055155;28;45193;-64
2023/01/15 04:35:14;;;;;;;;;0.00;0.00;;;;;8.30;68.07;100033.19;5054957;28;45326;-63
2023/01/15 04:37:39;;;;;;;;;0.00;0.00;;;;;8.11;67.75;100018.53;5055092;28;45579;-63
2023/01/15 04:40:05;;;;;;;;;0.00;0.00;;;;;8.36;67.60;100070.63;5036670;28;45864;-64
2023/01/15 04:45:15;;;;;;;;;0.00;0.00;;;;;8.26;67.32;100068.31;5039554;28;45507;-63
2023/01/15 04:47:41;;;;;;;;;0.00;0.00;;;;;8.35;67.42;100074.41;5036821;28;46663;-63
2023/01/15 04:50:07;;;;;;;;;1.00;1.00;;;;;8.43;68.19;100078.78;5055143;28;45419;-63
2023/01/15 04:52:32;;;;;;;;;0.60;0.00;;;;;8.36;66.81;100072.50;5055180;28;45380;-63
2023/01/15 04:54:58;;;;;;;;;0.75;0.00;;;;;8.25;67.05;100069.38;5055236;28;45553;-63
2023/01/15 04:57:23;;;;;;;;;2.00;1.00;;;;;8.21;66.02;100068.13;5036729;28;47702;-63
2023/01/15 04:59:49;;;;;;;;;0.00;0.00;;;;;8.20;66.34;100074.63;5054938;28;45607;-63
2023/01/15 05:02:14;;;;;;;;;0.00;0.00;;;;;7.90;65.98;100045.00;5054834;28;45291;-63
2023/01/15 05:04:40;;;;;;;;;0.00;0.00;;;;;8.09;66.78;100075.28;5055563;28;45322;-63
2023/01/15 05:07:05;;;;;;;;;0.00;0.00;;;;;8.11;65.32;100078.66;5036460;28;47758;-62
2023/01/15 05:09:31;;;;;;;;;1.00;0.00;;;;;8.04;65.24;100078.66;5037005;28;45399;-63
2023/01/15 05:11:56;;;;;;;;;0.00;0.00;;;;;8.04;66.96;100072.31;5054782;28;45275;-63
2023/01/15 05:14:22;;;;;;;;;0.00;0.00;;;;;8.12;65.93;100091.28;5055068;28;45563;-62
2023/01/15 05:16:47;;;;;;;;;1.00;1.00;;;;;8.19;65.61;100103.03;5036710;28;47610;-63
2023/01/15 05:19:13;;;;;;;;;0.00;0.00;;;;;8.16;65.47;100103.44;5054669;28;45328;-63
2023/01/15 05:21:42;;;;;;;;;0.00;0.00;;;;;8.20;65.02;100101.97;5054914;28;45292;-63
2023/01/15 05:24:09;;;;;;;;;1.00;0.00;;;;;8.21;64.01;100094.63;5055026;28;45563;-63
2023/01/15 05:26:35;;;;;;;;;0.00;0.00;;;;;8.18;64.00;100093.16;5057990;28;45830;-63
2023/01/15 05:29:01;;;;;;;;;0.50;0.50;;;;;8.06;63.64;100062.88;5058442;28;45312;-63
2023/01/15 05:31:27;;;;;;;;;0.00;0.00;;;;;8.10;64.26;100083.28;5027885;28;45710;-63
2023/01/15 05:33:53;;;;;;;;;0.00;0.00;;;;;8.11;65.05;100079.47;5040174;28;45478;-64
2023/01/15 05:36:23;;;;;;;;;0.00;0.00;;;;;8.09;64.50;100098.00;5039602;28;47991;-63
2023/01/15 05:38:48;;;;;;;;;0.00;0.00;;;;;8.05;64.31;100079.50;5057863;28;45455;-63
2023/01/15 05:44:04;;;;;;;;;0.00;0.00;;;;;8.03;63.93;100111.66;5057877;28;45394;-63
2023/01/15 05:46:29;;;;;;;;;0.00;0.00;;;;;7.86;63.58;100082.03;5039794;28;45447;-63
2023/01/15 05:49:02;;;;;;;;;0.00;0.00;;;;;8.00;64.05;100116.50;5057726;28;45291;-63
2023/01/15 05:51:28;;;;;;;;;1.00;0.00;;;;;8.01;64.64;100122.81;5006870;28;45400;-63
2023/01/15 05:53:54;;;;;;;;;0.00;0.00;;;;;7.99;63.29;100131.22;5057795;28;45318;-63
2023/01/15 05:56:19;;;;;;;;;0.25;0.25;;;;;7.76;63.93;100106.19;5057772;28;46387;-63
2023/01/15 05:58:45;;;;;;;;;0.00;0.00;;;;;7.99;64.01;100131.22;5057373;28;45425;-63
2023/01/15 06:01:10;;;;;;;;;0.00;0.00;;;;;7.98;63.67;100129.53;5057806;28;45457;-63
2023/01/15 06:03:36;;;;;;;;;1.00;0.00;;;;;8.03;63.09;100136.25;5022838;28;45619;-62
2023/01/15 06:06:01;;;;;;;;;0.00;0.00;;;;;8.00;62.87;100141.09;5039436;28;45659;-63
2023/01/15 06:08:27;;;;;;;;;0.00;0.00;;;;;7.83;64.10;100137.06;5039573;28;45444;-63
2023/01/15 06:10:52;;;;;;;;;2.00;0.00;;;;;7.94;63.77;100171.13;5057521;28;45384;-63
2023/01/15 06:13:18;;;;;;;;;0.00;0.00;;;;;7.98;64.09;100169.69;5058027;28;45239;-62
2023/01/15 06:15:43;;;;;;;;;0.00;0.00;;;;;7.58;62.68;100113.13;5057298;28;45298;-63
2023/01/15 06:18:09;;;;;;;;;0.00;0.00;;;;;7.92;63.82;100160.44;5039574;28;45993;-63
2023/01/15 06:20:38;;;;;;;;;0.00;0.00;;;;;7.94;62.78;100171.97;5057606;28;45410;-66
2023/01/15 06:23:04;;;;;;;;;0.00;0.00;;;;;7.94;62.98;100168.41;5057668;28;45555;-63
2023/01/15 06:25:34;;;;;;;;;0.00;0.00;;;;;7.68;62.17;100143.56;5039473;28;45441;-63
2023/01/15 06:27:59;;;;;;;;;0.00;0.00;;;;;7.88;63.45;100164.63;5057207;28;45323;-63
2023/01/15 06:30:25;;;;;;;;;0.00;0.00;;;;;7.90;63.63;100175.34;5057510;28;45365;-63
2023/01/15 06:32:50;;;;;;;;;0.00;0.00;;;;;7.90;63.12;100176.19;5035395;28;45489;-63
2023/01/15 06:35:16;;;;;;;;;0.25;0.00;;;;;7.91;63.72;100182.50;5057196;28;46606;-63
2023/01/15 06:37:41;;;;;;;;;0.00;0.00;;;;;7.89;63.94;100179.13;5077394;28;45903;-63
2023/01/15 06:40:09;;;;;;;;;1.00;0.50;;;;;7.85;63.20;100179.53;5076211;28;45334;-62
2023/01/15 06:48:02;;;;;;;;;0.00;0.00;;;;;7.83;63.78;100198.03;5061236;28;45496;-63
2023/01/15 06:50:28;;;;;;;;;0.50;0.00;;;;;7.87;64.41;100198.47;5075596;28;45291;-63
2023/01/15 06:52:53;;;;;;;;;0.00;0.00;;;;;7.71;63.68;100206.00;5056768;28;45589;-63
2023/01/15 06:55:19;;;;;;;;;0.00;0.00;;;;;7.67;64.53;100206.59;5038234;28;45608;-62
2023/01/15 06:57:44;;;;;;;;;0.00;0.00;;;;;7.66;63.58;100219.44;5056478;28;45381;-63
2023/01/15 07:00:10;;;;;;;;;0.00;0.00;;;;;7.76;64.67;100242.78;5056495;28;45445;-63
2023/01/15 07:02:36;;;;;;;;;0.00;0.00;;;;;7.68;63.86;100227.44;5038397;28;45547;-63
2023/01/15 07:05:02;;;;;;;;;0.00;0.00;;;;;7.56;63.97;100217.09;5056137;28;45969;-63
2023/01/15 07:07:28;;;;;;;;;0.00;0.00;;;;;7.58;63.21;100238.75;5038423;28;45371;-63
2023/01/15 07:09:54;;;;;;;;;0.00;0.00;;;;;7.54;64.40;100241.03;5056641;28;45396;-63
2023/01/15 07:12:19;;;;;;;;;0.00;0.00;;;;;7.59;64.36;100240.44;5038064;28;45551;-63
2023/01/15 07:14:45;;;;;;;;;0.00;0.00;;;;;7.60;65.04;100247.56;5056433;28;46264;-63
2023/01/15 07:17:11;;;;;;;;;0.00;0.00;;;;;7.48;63.44;100239.13;5021591;28;45396;-63
2023/01/15 07:19:36;;;;;;;;;0.00;0.00;;;;;7.47;64.64;100234.69;5056558;28;45354;-62
2023/01/15 07:22:02;;;;;;;;;0.00;0.00;;;;;7.45;64.24;100251.28;5056249;28;45473;-62
2023/01/15 07:24:27;;;;;;;;;0.00;0.00;;;;;7.29;63.69;100254.34;5055592;28;45577;-63
2023/01/15 07:26:53;;;;;;;;;0.00;0.00;;;;;7.30;65.06;100247.84;5056027;28;45396;-62
2023/01/15 07:29:18;;;;;;;;;0.00;0.00;;;;;7.38;64.44;100261.34;5054817;28;45338;-65
2023/01/15 07:31:44;;;;;;;;;0.00;0.00;;;;;7.35;65.13;100261.72;5056279;28;45475;-63
2023/01/15 07:34:09;;;;;;;;;1.75;0.00;;;;;7.38;64.95;100277.72;5055706;28;45551;-61
2023/01/15 07:36:35;;;;;;;;;0.50;0.00;;;;;7.43;65.13;100279.84;5055745;28;45424;-62
2023/01/15 07:39:03;;;;;;;;;0.00;0.00;;;;;7.35;65.13;100283.56;5054669;28;45345;-62
2023/01/15 07:49:49;;;;;;;;;0.00;0.00;;;;;7.45;65.64;100281.34;5056190;28;45350;-63
2023/01/15 07:52:18;;;;;;;;;2.60;0.00;;;;;7.48;65.49;100282.81;5055891;28;45484;-64
2023/01/15 07:54:44;;;;;;;;;1.60;0.00;;;;;7.46;65.62;100269.34;5056021;28;45445;-64
2023/01/15 07:57:10;;;;;;;;;0.00;0.00;;;;;7.53;66.01;100271.28;5055780;28;45658;-64
2023/01/15 07:59:36;;;;;;;;;0.00;0.00;;;;;7.52;66.07;100273.16;5037966;28;45381;-64
2023/01/15 08:02:01;;;;;;;;;0.00;0.00;;;;;7.58;66.02;100274.25;5056032;28;45341;-64
2023/01/15 08:04:27;;;;;;;;;0.25;0.00;;;;;7.58;66.10;100264.16;5055655;28;45790;-64
2023/01/15 08:06:52;;;;;;;;;1.00;0.50;;;;;7.61;65.88;100262.91;5055542;28;45274;-63
2023/01/15 08:09:18;;;;;;;;;1.00;0.00;;;;;7.33;65.94;100220.16;5037414;28;45299;-62
2023/01/15 08:17:12;;;;;;;;;0.60;0.00;;;;;7.59;66.35;100284.13;5055654;28;45319;-63
2023/01/15 08:19:38;;;;;;;;;0.00;0.00;;;;;7.38;65.58;100241.38;5049683;28;45346;-63
2023/01/15 08:22:04;;;;;;;;;0.00;0.00;;;;;7.55;65.67;100280.97;5035649;28;45581;-64
2023/01/15 08:24:29;;;;;;;;;0.75;0.75;;;;;7.59;65.96;100279.50;5035003;28;46288;-64
2023/01/15 08:26:55;;;;;;;;;0.50;0.25;;;;;7.57;66.05;100269.81;5016342;28;45694;-64
2023/01/15 08:29:21;;;;;;;;;0.00;0.00;;;;;7.56;64.96;100268.13;5055566;28;45346;-65
2023/01/15 08:31:47;;;;;;;;;1.60;0.00;;;;;7.52;65.81;100288.72;5055598;28;45572;-63
2023/01/15 08:34:12;;;;;;;;;0.00;0.00;;;;;7.50;65.24;100278.00;5037101;28;46405;-65
2023/01/15 08:36:38;;;;;;;;;1.00;0.00;;;;;7.46;65.74;100293.94;5036632;28;46379;-63
2023/01/15 08:39:03;;;;;;;;;6.00;6.00;;;;;7.44;65.58;100290.56;5036880;28;45493;-62
2023/01/15 08:41:29;;;;;;;;;1.00;0.00;;;;;7.37;65.52;100306.06;5037174;28;45488;-62
2023/01/15 08:43:55;;;;;;;;;0.60;0.00;;;;;7.25;66.12;100283.13;5054850;28;46828;-57
2023/01/15 08:46:20;;;;;;;;;0.75;0.75;;;;;7.36;65.88;100307.09;5036970;28;45357;-60
2023/01/15 08:48:47;;;;;;;;;0.00;0.00;;;;;7.33;65.60;100296.59;5023209;27;46063;-60
2023/01/15 08:51:13;;;;;;;;;0.00;0.00;;;;;7.28;65.46;100285.44;5052023;28;45377;-60
2023/01/15 08:53:38;;;;;;;;;0.00;0.00;;;;;6.74;66.21;100184.16;5060068;28;45593;-60
2023/01/15 08:56:14;;;;;;;;;7.00;0.00;;;;;7.06;65.58;100225.47;5073776;28;45375;-59
2023/01/15 08:58:39;;;;;;;;;1.00;1.00;;;;;7.33;65.30;100270.13;5071504;28;45482;-61
2023/01/15 09:01:06;;;;;;;;;1.50;0.50;;;;;7.35;65.82;100255.44;5077810;28;45545;-60
2023/01/15 09:03:31;;;;;;;;;0.20;0.00;;;;;7.41;65.68;100257.34;5092937;27;45429;-60
2023/01/15 09:05:58;;;;;;;;;0.25;0.00;;;;;7.44;65.52;100263.28;5077133;28;45383;-59
2023/01/15 09:08:24;;;;;;;;;1.00;1.00;;;;;7.40;65.48;100256.53;5077149;28;45415;-60
2023/01/15 09:10:50;;;;;;;;;2.00;0.00;;;;;7.46;64.38;100273.97;5074667;28;45255;-57
2023/01/15 09:13:15;;;;;;;;;0.50;0.00;;;;;7.46;64.91;100285.75;5058853;28;45419;-59
2023/01/15 09:15:41;;;;;;;;;0.00;0.00;;;;;7.48;65.35;100285.56;5077195;28;45393;-59
2023/01/15 09:18:09;;;;;;;;;1.75;1.00;;;;;7.45;64.18;100281.34;5075642;28;45363;-60
2023/01/15 09:20:35;;;;;;;;;1.40;1.00;;;;;7.11;64.49;100230.31;5077269;28;45463;-62
2023/01/15 09:23:00;;;;;;;;;1.00;1.00;;;;;7.47;64.49;100286.56;5074890;28;45425;-59
2023/01/15 09:25:26;;;;;;;;;0.75;0.75;;;;;7.17;64.06;100238.53;5077201;28;45509;-60
2023/01/15 09:27:54;;;;;;;;;1.00;0.75;;;;;7.32;64.54;100284.81;5029991;28;45384;-60
2023/01/15 09:30:20;;;;;;;;;0.20;0.20;;;;;7.35;64.15;100289.03;5045379;28;45486;-59
2023/01/15 09:32:46;;;;;;;;;1.00;0.00;;;;;7.41;64.08;100285.50;5056541;28;45431;-59
2023/01/15 09:35:12;;;;;;;;;0.80;0.80;;;;;7.44;64.26;100287.00;5039215;28;45482;-59
2023/01/15 09:37:38;;;;;;;;;2.50;1.25;;;;;7.50;64.01;100288.91;5069851;28;45370;-59
2023/01/15 09:40:06;;;;;;;;;2.40;0.60;;;;;7.37;63.70;100280.66;5056417;28;45272;-59
2023/01/15 09:42:55;;;;;;;;;1.80;0.80;;;;;7.49;63.73;100298.16;5018437;28;46362;-59
2023/01/15 09:45:35;;;;;;;;;0.00;0.00;;;;;7.49;63.42;100294.56;5063585;28;45610;-61
2023/01/15 09:48:31;;;;;;;;;0.00;0.00;;;;;7.54;63.11;100297.53;5071950;28;45518;-62
2023/01/15 09:51:20;;;;;;;;;0.40;0.40;;;;;7.44;62.61;100315.16;5091679;27;45639;-60
2023/01/15 09:54:04;;;;;;;;;0.00;0.00;;;;;7.41;63.53;100293.69;5039727;28;46626;-62
2023/01/15 09:56:32;;;;;;;;;2.00;1.00;;;;;7.53;63.72;100302.16;5056257;28;45761;-62
2023/01/15 09:58:58;;;;;;;;;0.60;0.60;;;;;7.39;63.20;100289.47;5056237;28;45322;-62
2023/01/15 10:01:28;;;;;;;;;1.00;0.00;;;;;7.56;62.97;100322.75;5047220;28;46955;-62
2023/01/15 10:04:08;;;;;;;;;2.00;0.20;;;;;7.42;62.40;100289.91;5039842;28;46306;-62
2023/01/15 10:06:43;;;;;;;;;0.40;0.20;;;;;7.22;63.11;100256.22;5038075;28;45351;-63
2023/01/15 10:09:13;;;;;;;;;0.00;0.00;;;;;7.68;63.34;100310.22;5021269;28;45384;-61
2023/01/15 10:14:47;;;;;;;;;3.00;0.00;;;;;7.73;62.09;100325.97;5060145;28;45758;-62
2023/01/15 10:17:18;;;;;;;;;0.00;0.00;;;;;7.75;61.83;100299.31;5079745;27;45295;-61
2023/01/15 10:19:43;;;;;;;;;1.40;1.00;;;;;7.75;61.83;100295.72;5045481;28;45369;-62
2023/01/15 10:22:18;;;;;;;;;3.25;0.00;;;;;7.73;61.51;100301.41;5055681;28;45701;-63
2023/01/15 10:24:56;;;;;;;;;4.00;0.60;;;;;7.74;62.04;100292.16;5025279;28;47508;-63
2023/01/15 10:27:22;;;;;;;;;1.60;1.20;;;;;7.78;61.68;100295.34;5057776;28;45358;-62
2023/01/15 10:30:14;;;;;;;;;0.00;0.00;;;;;7.77;62.21;100296.38;5059638;28;45436;-63
2023/01/15 10:32:49;;;;;;;;;1.00;1.00;;;;;7.83;62.70;100301.00;5016662;28;45532;-64
2023/01/15 10:35:42;;;;;;;;;0.80;0.20;;;;;7.81;62.57;100303.13;5035051;28;46412;-61
2023/01/15 10:38:35;;;;;;;;;0.40;0.40;;;;;7.78;62.06;100278.94;5041775;28;45457;-64
2023/01/15 10:41:18;;;;;;;;;2.60;1.00;;;;;8.11;62.45;100297.34;5036077;28;46062;-61
2023/01/15 10:43:52;;;;;;;;;1.00;1.00;;;;;8.31;61.71;100278.22;5059831;28;45796;-62
2023/01/15 10:46:22;;;;;;;;;5.00;2.00;;;;;8.43;61.68;100280.34;5063141;28;46077;-63
2023/01/15 10:48:57;;;;;;;;;1.00;1.00;;;;;8.25;61.18;100274.44;5027724;28;45662;-64
2023/01/15 10:51:49;;;;;;;;;2.80;2.20;;;;;8.45;61.04;100290.03;5057785;28;45883;-61
2023/01/15 10:54:31;;;;;;;;;1.40;0.20;;;;;8.31;61.94;100269.19;5060253;28;45737;-65
2023/01/15 10:57:02;;;;;;;;;1.00;0.00;;;;;8.56;61.47;100304.16;5073918;28;46784;-65
2023/01/15 10:59:38;;;;;;;;;0.20;0.00;;;;;8.40;61.29;100307.03;5056850;28;45462;-62
2023/01/15 11:02:32;;;;;;;;;2.60;1.00;;;;;8.40;61.24;100292.53;5046507;28;45540;-63
2023/01/15 11:04:57;;;;;;;;;0.40;0.40;;;;;8.39;61.08;100288.94;5039501;28;45752;-62
2023/01/15 11:07:43;;;;;;;;;0.75;0.25;;;;;8.25;60.98;100263.50;5054805;28;45403;-61
2023/01/15 11:10:16;;;;;;;;;0.60;0.60;;;;;8.33;59.90;100286.22;5022990;28;45492;-61
2023/01/15 11:21:11;;;;;;;;;1.80;1.80;;;;;8.50;60.47;100270.25;5039190;28;45373;-60
2023/01/15 11:23:37;;;;;;;;;0.80;0.80;;;;;8.41;59.93;100239.53;5018654;28;45421;-59
2023/01/15 11:26:03;;;;;;;;;1.75;1.75;;;;;8.53;60.66;100262.50;5035257;28;45775;-61
2023/01/15 11:28:41;;;;;;;;;1.00;0.00;;;;;8.62;60.39;100267.75;5074846;28;46485;-62
2023/01/15 11:31:08;;;;;;;;;1.60;1.60;;;;;8.72;59.88;100275.53;5074417;28;45464;-60
2023/01/15 11:33:33;;;;;;;;;2.80;1.20;;;;;8.45;60.07;100232.59;5056338;28;45488;-62
2023/01/15 11:36:04;;;;;;;;;3.00;2.00;;;;;8.95;59.26;100245.84;5074459;28;45531;-61
2023/01/15 11:38:36;;;;;;;;;3.20;2.20;;;;;12.21;50.60;100253.91;5059448;28;45705;-59
2023/01/15 11:41:04;;;;;;;;;1.00;0.00;;;;;15.71;42.87;100161.56;5020142;28;45300;-60
2023/01/15 11:52:16;;;;;;;;;1.00;0.00;;;;;16.56;38.64;100232.13;5034064;28;45347;-63
2023/01/15 11:54:43;;;;;;;;;0.80;0.80;;;;;14.70;41.79;100241.75;5033972;28;45461;-61
2023/01/15 11:57:09;;;;;;;;;3.60;0.60;;;;;13.29;44.97;100219.84;5016121;28;45407;-61
2023/01/15 11:59:35;;;;;;;;;3.40;1.80;;;;;12.41;46.78;100237.09;5049194;28;46291;-62
2023/01/15 12:02:03;;;;;;;;;1.25;0.00;;;;;11.76;48.35;100258.78;5032603;28;45626;-61
2023/01/15 12:04:36;;;;;;;;;3.00;1.00;;;;;11.24;49.30;100251.78;5030968;28;45447;-62
2023/01/15 12:07:03;;;;;;;;;1.00;1.00;;;;;10.90;50.32;100251.28;5014099;28;45984;-59
2023/01/15 12:09:31;;;;;;;;;0.00;0.00;;;;;10.52;51.89;100255.00;5015511;28;45732;-60
2023/01/15 12:12:05;;;;;;;;;2.20;2.00;;;;;10.26;51.88;100233.00;5014416;28;45415;-59
2023/01/15 12:14:44;;;;;;;;;0.00;0.00;;;;;9.93;53.03;100200.34;4980449;28;45519;-59
2023/01/15 12:17:15;;;;;;;;;0.60;0.60;;;;;10.10;52.63;100228.06;5014199;28;45378;-59
2023/01/15 12:19:46;;;;;;;;;1.00;1.00;;;;;9.95;52.86;100220.13;5015113;28;46001;-59
2023/01/15 12:22:22;;;;;;;;;0.00;0.00;;;;;9.85;53.84;100215.97;5029810;28;45362;-60
2023/01/15 12:24:53;;;;;;;;;0.60;0.60;;;;;9.95;54.86;100222.88;4997659;28;45388;-61
2023/01/15 12:27:45;;;;;;;;;1.00;0.20;;;;;9.98;53.76;100216.97;4987884;28;45597;-55
2023/01/15 12:30:33;;;;;;;;;1.00;0.00;;;;;9.93;53.87;100214.84;5015087;28;46673;-59